Time;durP1;ratioP1;P1;durP2;ratioP2;P2;SDS_P1;SDS_P2;PMS_P1;PMS_P2;Temp;Humidity;BMP_temperature;BMP_pressure;BME280_temperature;BME280_humidity;BME280_pressure;Samples;Min_cycle;Max_cycle;Signal;HPM_P1;HPM_P2
2023/08/31 00:00:26;;;;;;;;;;;;;;;12.06;98.15;100791.00;5018409;28;19920;-60
2023/08/31 00:02:51;;;;;;;;;;;;;;;11.96;97.23;100795.19;5024358;28;19917;-61
2023/08/31 00:05:16;;;;;;;;;;;;;;;11.94;97.37;100794.28;5016406;28;19906;-60
2023/08/31 00:07:41;;;;;;;;;;;;;;;11.94;97.56;100787.34;5020670;28;19901;-60
2023/08/31 00:10:11;;;;;;;;;;;;;;;11.93;97.64;100788.16;5025414;28;19933;-60
2023/08/31 00:12:36;;;;;;;;;;;;;;;11.90;97.69;100784.63;5022552;28;20198;-60
2023/08/31 00:15:04;;;;;;;;;;;;;;;11.89;97.83;100795.91;5021341;28;19905;-60
2023/08/31 00:17:29;;;;;;;;;;;;;;;11.87;97.38;100793.25;5016729;28;19952;-60
2023/08/31 00:19:54;;;;;;;;;;;;;;;11.85;97.62;100784.53;5024005;28;19909;-60
2023/08/31 00:22:19;;;;;;;;;;;;;;;11.81;97.77;100790.56;5020951;28;19905;-60
2023/08/31 00:24:45;;;;;;;;;;;;;;;11.80;98.50;100783.56;5019509;28;19914;-60
2023/08/31 00:27:10;;;;;;;;;;;;;;;11.75;98.09;100783.50;5018760;28;20239;-60
2023/08/31 00:29:36;;;;;;;;;;;;;;;11.72;98.29;100780.84;5023875;28;20117;-60
2023/08/31 00:32:02;;;;;;;;;;;;;;;11.71;98.08;100788.63;5022514;28;20052;-60
2023/08/31 00:34:27;;;;;;;;;;;;;;;11.69;98.11;100777.28;5024702;28;20111;-60
2023/08/31 00:36:52;;;;;;;;;;;;;;;11.64;99.42;100783.31;5023814;28;19912;-60
2023/08/31 00:39:20;;;;;;;;;;;;;;;11.64;98.60;100785.94;5020255;28;19905;-60
2023/08/31 00:41:46;;;;;;;;;;;;;;;11.64;98.46;100788.53;5022192;28;19910;-60
2023/08/31 00:44:11;;;;;;;;;;;;;;;11.62;98.54;100790.22;5029526;28;19929;-60
2023/08/31 00:46:37;;;;;;;;;;;;;;;11.56;98.98;100784.91;5029180;28;19909;-60
2023/08/31 00:49:03;;;;;;;;;;;;;;;11.55;99.50;100782.25;5023910;28;19965;-60
2023/08/31 00:51:29;;;;;;;;;;;;;;;11.55;98.79;100777.91;5023398;28;19932;-60
2023/08/31 00:53:55;;;;;;;;;;;;;;;11.55;100.00;100779.66;5024064;28;20090;-60
2023/08/31 00:56:20;;;;;;;;;;;;;;;11.50;99.71;100784.78;5024267;28;20153;-60
2023/08/31 00:58:46;;;;;;;;;;;;;;;11.46;100.00;100783.84;5023882;28;19902;-60
2023/08/31 01:01:19;;;;;;;;;;;;;;;11.46;100.00;100783.84;5021487;28;19909;-60
2023/08/31 01:03:53;;;;;;;;;;;;;;;11.43;99.61;100788.13;5024245;28;19912;-60
2023/08/31 01:06:24;;;;;;;;;;;;;;;11.41;100.00;100784.59;5023449;28;19906;-60
2023/08/31 01:08:57;;;;;;;;;;;;;;;11.39;100.00;100781.97;5025644;28;20124;-60
2023/08/31 01:11:22;;;;;;;;;;;;;;;11.36;100.00;100771.47;5013163;28;19909;-60
2023/08/31 01:13:51;;;;;;;;;;;;;;;11.35;99.77;100779.28;5023456;28;19906;-60
2023/08/31 01:16:17;;;;;;;;;;;;;;;11.33;99.91;100780.97;5024910;28;19906;-60
2023/08/31 01:18:43;;;;;;;;;;;;;;;11.33;99.87;100783.59;5025293;28;19977;-60
2023/08/31 01:21:12;;;;;;;;;;;;;;;11.28;100.00;100778.25;5026671;28;20079;-60
2023/08/31 01:23:45;;;;;;;;;;;;;;;11.24;100.00;100774.72;5022209;28;19936;-60
2023/08/31 01:26:10;;;;;;;;;;;;;;;11.24;100.00;100777.34;5026724;28;20147;-60
2023/08/31 01:28:35;;;;;;;;;;;;;;;11.24;99.71;100782.56;5027090;28;19913;-60
2023/08/31 01:31:04;;;;;;;;;;;;;;;11.26;99.85;100779.97;5026873;28;19968;-60
2023/08/31 01:33:29;;;;;;;;;;;;;;;11.24;100.00;100787.75;5033473;28;19908;-60
2023/08/31 01:35:56;;;;;;;;;;;;;;;11.23;100.00;100780.78;5026098;28;19905;-60
2023/08/31 01:38:25;;;;;;;;;;;;;;;11.21;99.92;100790.31;5022373;28;19908;-60
2023/08/31 01:40:54;;;;;;;;;;;;;;;11.20;100.00;100788.53;5027279;28;19913;-60
2023/08/31 01:43:21;;;;;;;;;;;;;;;11.18;100.00;100795.47;5027200;28;20132;-60
2023/08/31 01:45:47;;;;;;;;;;;;;;;11.15;100.00;100795.38;5026528;28;19991;-60
2023/08/31 01:48:13;;;;;;;;;;;;;;;11.10;100.00;100797.03;5025824;28;19902;-60
2023/08/31 01:50:38;;;;;;;;;;;;;;;11.07;100.00;100794.38;5026935;28;19913;-60
2023/08/31 01:53:06;;;;;;;;;;;;;;;11.05;100.00;100801.25;5027318;28;19905;-60
2023/08/31 01:55:32;;;;;;;;;;;;;;;11.04;100.00;100808.22;5027099;28;19912;-60
2023/08/31 01:57:57;;;;;;;;;;;;;;;11.06;100.00;100793.47;5025285;28;19901;-60
2023/08/31 02:00:22;;;;;;;;;;;;;;;11.07;100.00;100799.59;5026889;28;19901;-60
2023/08/31 02:02:47;;;;;;;;;;;;;;;11.08;100.00;100798.72;5026584;28;20031;-60
2023/08/31 02:05:13;;;;;;;;;;;;;;;11.09;100.00;100800.47;5026819;28;19898;-60
2023/08/31 02:07:40;;;;;;;;;;;;;;;11.13;100.00;100799.69;5018608;28;19955;-60
2023/08/31 02:10:08;;;;;;;;;;;;;;;11.13;100.00;100803.19;5026593;28;19940;-60
2023/08/31 02:12:33;;;;;;;;;;;;;;;11.18;100.00;100805.00;5026649;28;19901;-60
2023/08/31 02:14:59;;;;;;;;;;;;;;;11.15;100.00;100798.00;5020784;28;19965;-60
2023/08/31 02:17:25;;;;;;;;;;;;;;;11.22;100.00;100802.47;5019229;28;19913;-59
2023/08/31 02:19:50;;;;;;;;;;;;;;;11.18;100.00;100802.41;5028347;28;19908;-60
2023/08/31 02:22:15;;;;;;;;;;;;;;;11.14;100.00;100804.94;5028035;28;19968;-60
2023/08/31 02:24:40;;;;;;;;;;;;;;;11.17;100.00;100795.44;5024693;28;19913;-59
2023/08/31 02:27:06;;;;;;;;;;;;;;;11.15;100.00;100798.00;5024037;28;20182;-60
2023/08/31 02:29:31;;;;;;;;;;;;;;;11.19;100.00;100797.22;5022292;28;19949;-60
2023/08/31 02:31:56;;;;;;;;;;;;;;;11.20;100.00;100796.38;5030866;28;19976;-60
2023/08/31 02:34:21;;;;;;;;;;;;;;;11.24;100.00;100792.09;5029898;28;19931;-60
2023/08/31 02:36:46;;;;;;;;;;;;;;;11.25;100.00;100801.69;5024244;28;19906;-60
2023/08/31 02:39:12;;;;;;;;;;;;;;;11.28;100.00;100796.50;5025084;28;20055;-60
2023/08/31 02:41:38;;;;;;;;;;;;;;;11.26;100.00;100799.09;5026280;28;19913;-60
2023/08/31 02:44:03;;;;;;;;;;;;;;;11.29;100.00;100806.97;5023577;28;19909;-60
2023/08/31 02:46:28;;;;;;;;;;;;;;;11.26;100.00;100801.69;5023507;28;19909;-60
2023/08/31 02:48:54;;;;;;;;;;;;;;;11.20;100.00;100801.59;5015304;28;19948;-60
2023/08/31 02:51:19;;;;;;;;;;;;;;;11.18;100.00;100803.31;5025204;28;20147;-60
2023/08/31 02:53:44;;;;;;;;;;;;;;;11.18;100.00;100807.63;5025211;28;20055;-59
2023/08/31 02:56:09;;;;;;;;;;;;;;;11.11;100.00;100809.25;5024463;28;19917;-60
2023/08/31 02:58:34;;;;;;;;;;;;;;;11.10;100.00;100804.84;5025354;28;19976;-60
2023/08/31 03:01:13;;;;;;;;;;;;;;;11.07;100.00;100805.66;5023921;28;19905;-59
2023/08/31 03:03:41;;;;;;;;;;;;;;;11.13;100.00;100799.69;5023368;28;20068;-59
2023/08/31 03:06:08;;;;;;;;;;;;;;;11.08;100.00;100801.31;5022822;28;19912;-59
2023/08/31 03:08:34;;;;;;;;;;;;;;;11.05;100.00;100807.38;5024985;28;19912;-59
2023/08/31 03:10:59;;;;;;;;;;;;;;;11.02;100.00;100809.03;5025196;28;19914;-59
2023/08/31 03:13:24;;;;;;;;;;;;;;;11.00;100.00;100810.72;5019977;28;19906;-59
2023/08/31 03:15:49;;;;;;;;;;;;;;;10.99;100.00;100807.22;5022983;28;20090;-59
2023/08/31 03:18:15;;;;;;;;;;;;;;;10.96;100.00;100812.38;5024510;28;19909;-60
2023/08/31 03:20:40;;;;;;;;;;;;;;;10.95;100.00;100814.13;5014096;28;19992;-59
2023/08/31 03:23:05;;;;;;;;;;;;;;;10.96;100.00;100813.28;5021606;28;19980;-59
2023/08/31 03:25:30;;;;;;;;;;;;;;;10.94;100.00;100811.47;5024182;28;19932;-59
2023/08/31 03:27:55;;;;;;;;;;;;;;;10.91;100.00;100808.81;5024541;28;19909;-59
2023/08/31 03:30:21;;;;;;;;;;;;;;;10.90;100.00;100823.56;5024325;28;20202;-59
2023/08/31 03:32:46;;;;;;;;;;;;;;;10.90;100.00;100818.34;5024736;28;19948;-59
2023/08/31 03:35:11;;;;;;;;;;;;;;;10.87;100.00;100813.06;5015446;28;19906;-59
2023/08/31 03:37:37;;;;;;;;;;;;;;;10.84;100.00;100812.13;5019794;28;19912;-59
2023/08/31 03:40:04;;;;;;;;;;;;;;;10.84;100.00;100812.13;5020953;28;19912;-59
2023/08/31 03:42:29;;;;;;;;;;;;;;;10.84;100.00;100805.19;5020761;28;19910;-59
2023/08/31 03:44:54;;;;;;;;;;;;;;;10.84;100.00;100804.31;5023598;28;19909;-59
2023/08/31 03:47:19;;;;;;;;;;;;;;;10.82;100.00;100801.66;5024187;28;19915;-59
2023/08/31 03:49:45;;;;;;;;;;;;;;;10.80;100.00;100795.53;5018224;28;19973;-59
2023/08/31 03:52:10;;;;;;;;;;;;;;;10.72;100.00;100797.97;5027947;28;19928;-59
2023/08/31 03:54:35;;;;;;;;;;;;;;;10.70;100.00;100801.38;5022949;28;19924;-59
2023/08/31 03:57:00;;;;;;;;;;;;;;;10.70;100.00;100796.16;5024383;28;19910;-59
2023/08/31 03:59:25;;;;;;;;;;;;;;;10.71;100.00;100792.72;5024070;28;19906;-59
2023/08/31 04:01:51;;;;;;;;;;;;;;;10.71;100.00;100798.81;5023135;28;19906;-59
2023/08/31 04:04:16;;;;;;;;;;;;;;;10.72;100.00;100802.31;5023806;28;19916;-59
2023/08/31 04:06:41;;;;;;;;;;;;;;;10.71;100.00;100803.16;5022922;28;19927;-58
2023/08/31 04:09:06;;;;;;;;;;;;;;;10.69;100.00;100807.44;5023627;28;19910;-59
2023/08/31 04:11:31;;;;;;;;;;;;;;;10.68;100.00;100808.31;5024287;28;20162;-59
2023/08/31 04:13:57;;;;;;;;;;;;;;;10.68;100.00;100810.91;5023672;28;19912;-59
2023/08/31 04:16:22;;;;;;;;;;;;;;;10.68;100.00;100821.34;5010463;28;19905;-59
2023/08/31 04:18:51;;;;;;;;;;;;;;;10.68;100.00;100818.72;5018270;28;20185;-59
2023/08/31 04:21:17;;;;;;;;;;;;;;;10.68;100.00;100823.94;5023469;28;19906;-58
2023/08/31 04:23:42;;;;;;;;;;;;;;;10.67;100.00;100829.97;5023635;28;19955;-58
2023/08/31 04:26:13;;;;;;;;;;;;;;;10.67;100.00;100828.25;5023869;28;20084;-59
2023/08/31 04:28:39;;;;;;;;;;;;;;;10.66;100.00;100823.00;5024092;28;19910;-59
2023/08/31 04:31:05;;;;;;;;;;;;;;;10.67;100.00;100825.66;5029444;28;19909;-59
2023/08/31 04:33:30;;;;;;;;;;;;;;;10.67;100.00;100823.03;5023957;28;19965;-58
2023/08/31 04:35:55;;;;;;;;;;;;;;;10.68;100.00;100829.16;5018473;28;19944;-59
2023/08/31 04:38:21;;;;;;;;;;;;;;;10.66;100.00;100828.22;5023889;28;19909;-59
2023/08/31 04:40:46;;;;;;;;;;;;;;;10.65;100.00;100832.56;5019543;28;19906;-59
2023/08/31 04:43:11;;;;;;;;;;;;;;;10.63;100.00;100835.97;5023488;28;19906;-59
2023/08/31 04:45:36;;;;;;;;;;;;;;;10.62;100.00;100837.69;5023117;28;19906;-58
2023/08/31 04:48:02;;;;;;;;;;;;;;;10.64;100.00;100841.22;5018920;28;19968;-58
2023/08/31 04:50:28;;;;;;;;;;;;;;;10.66;100.00;100838.63;5023225;28;19993;-59
2023/08/31 04:52:54;;;;;;;;;;;;;;;10.61;100.00;100836.81;5018013;28;19906;-58
2023/08/31 04:55:21;;;;;;;;;;;;;;;10.59;100.00;100838.50;5019098;28;20158;-59
2023/08/31 04:57:46;;;;;;;;;;;;;;;10.57;100.00;100836.69;5016292;28;20138;-59
2023/08/31 05:00:11;;;;;;;;;;;;;;;10.58;100.00;100847.16;5014311;28;19905;-59
2023/08/31 05:02:37;;;;;;;;;;;;;;;10.60;100.00;100850.69;5027003;28;19941;-58
2023/08/31 05:05:03;;;;;;;;;;;;;;;10.60;100.00;100855.91;5028316;28;19906;-59
2023/08/31 05:07:28;;;;;;;;;;;;;;;10.61;100.00;100852.44;5027614;28;19959;-59
2023/08/31 05:09:53;;;;;;;;;;;;;;;10.60;100.00;100853.31;5031091;28;20113;-59
2023/08/31 05:12:18;;;;;;;;;;;;;;;10.61;100.00;100856.78;5026461;28;19917;-59
2023/08/31 05:14:44;;;;;;;;;;;;;;;10.61;100.00;100873.28;5027072;28;19901;-58
2023/08/31 05:17:09;;;;;;;;;;;;;;;10.61;100.00;100862.84;5020992;28;19939;-59
2023/08/31 05:19:34;;;;;;;;;;;;;;;10.64;100.00;100869.00;5027147;28;20127;-58
2023/08/31 05:21:59;;;;;;;;;;;;;;;10.67;100.00;100874.28;5014130;28;19922;-59
2023/08/31 05:24:24;;;;;;;;;;;;;;;10.67;100.00;100882.09;5016713;28;19909;-59
2023/08/31 05:26:49;;;;;;;;;;;;;;;10.67;100.00;100874.28;5027247;28;20115;-58
2023/08/31 05:29:15;;;;;;;;;;;;;;;10.69;100.00;100875.19;5026908;28;19912;-59
2023/08/31 05:31:40;;;;;;;;;;;;;;;10.69;100.00;100885.63;5038582;28;20086;-59
2023/08/31 05:34:05;;;;;;;;;;;;;;;10.67;100.00;100896.00;5021431;28;20106;-59
2023/08/31 05:36:30;;;;;;;;;;;;;;;10.68;100.00;100894.28;5032609;28;19909;-58
2023/08/31 05:38:56;;;;;;;;;;;;;;;10.68;100.00;100899.50;5027230;28;19971;-58
2023/08/31 05:41:21;;;;;;;;;;;;;;;10.66;100.00;100899.47;5028200;28;20296;-59
2023/08/31 05:43:46;;;;;;;;;;;;;;;10.66;100.00;100904.69;5025910;28;19913;-59
2023/08/31 05:46:11;;;;;;;;;;;;;;;10.68;100.00;100904.72;5025953;28;19992;-59
2023/08/31 05:48:37;;;;;;;;;;;;;;;10.69;100.00;100903.84;5025595;28;19948;-58
2023/08/31 05:51:03;;;;;;;;;;;;;;;10.71;100.00;100910.00;5026486;28;19910;-58
2023/08/31 05:53:28;;;;;;;;;;;;;;;10.74;100.00;100902.25;5027334;28;19933;-59
2023/08/31 05:55:54;;;;;;;;;;;;;;;10.75;100.00;100901.41;5026363;28;20225;-59
2023/08/31 05:58:19;;;;;;;;;;;;;;;10.75;100.00;100904.91;5026202;28;19991;-59
2023/08/31 06:00:45;;;;;;;;;;;;;;;10.76;100.00;100904.06;5017504;28;19949;-58
2023/08/31 06:03:10;;;;;;;;;;;;;;;10.76;100.00;100910.97;5025105;28;20012;-58
2023/08/31 06:05:36;;;;;;;;;;;;;;;10.78;100.00;100911.91;5026513;28;19960;-58
2023/08/31 06:08:01;;;;;;;;;;;;;;;10.79;100.00;100909.34;5025487;28;19947;-58
2023/08/31 06:10:26;;;;;;;;;;;;;;;10.85;100.00;100913.81;5027492;28;20045;-58
2023/08/31 06:12:51;;;;;;;;;;;;;;;10.87;100.00;100909.50;5024723;28;19913;-58
2023/08/31 06:15:17;;;;;;;;;;;;;;;10.93;100.00;100909.69;5025095;28;19913;-58
2023/08/31 06:17:42;;;;;;;;;;;;;;;10.95;100.00;100912.31;5025778;28;20055;-59
2023/08/31 06:20:08;;;;;;;;;;;;;;;11.00;100.00;100915.03;5025723;28;19912;-58
2023/08/31 06:22:33;;;;;;;;;;;;;;;11.03;100.00;100913.34;5024474;28;19912;-58
2023/08/31 06:24:58;;;;;;;;;;;;;;;11.06;100.00;100920.38;5025794;28;19905;-58
2023/08/31 06:27:24;;;;;;;;;;;;;;;11.13;100.00;100924.88;5020286;28;19906;-58
2023/08/31 06:29:49;;;;;;;;;;;;;;;11.18;100.00;100928.47;5029365;28;19913;-59
2023/08/31 06:32:14;;;;;;;;;;;;;;;11.24;100.00;100917.28;5022628;28;20140;-58
2023/08/31 06:34:39;;;;;;;;;;;;;;;11.33;100.00;100933.16;5022402;28;20078;-59
2023/08/31 06:37:05;;;;;;;;;;;;;;;11.39;100.00;100927.19;5008760;28;20144;-58
2023/08/31 06:39:30;;;;;;;;;;;;;;;11.51;100.00;100934.38;5022241;28;19906;-58
2023/08/31 06:41:55;;;;;;;;;;;;;;;11.53;100.00;100938.81;5032590;28;19913;-59
2023/08/31 06:44:20;;;;;;;;;;;;;;;11.62;100.00;100938.97;5025746;28;19913;-58
2023/08/31 06:46:45;;;;;;;;;;;;;;;11.68;100.00;100933.00;5025317;28;19906;-58
2023/08/31 06:49:11;;;;;;;;;;;;;;;11.75;100.00;100934.91;5024567;28;19905;-58
2023/08/31 06:51:37;;;;;;;;;;;;;;;11.82;100.00;100938.53;5023914;28;19973;-59
2023/08/31 06:54:08;;;;;;;;;;;;;;;11.86;100.00;100948.19;5026829;28;20103;-59
2023/08/31 06:56:33;;;;;;;;;;;;;;;11.91;100.00;100943.91;5017258;28;19929;-58
2023/08/31 06:58:59;;;;;;;;;;;;;;;12.03;100.00;100952.88;5024823;28;19914;-58
2023/08/31 07:01:24;;;;;;;;;;;;;;;12.10;100.00;100950.41;5021120;28;19917;-58
2023/08/31 07:03:49;;;;;;;;;;;;;;;12.17;100.00;100951.41;5026662;28;20135;-59
2023/08/31 07:06:14;;;;;;;;;;;;;;;12.27;100.00;100958.56;5019029;28;19906;-58
2023/08/31 07:08:40;;;;;;;;;;;;;;;12.32;100.00;100956.91;5023319;28;20066;-58
2023/08/31 07:11:06;;;;;;;;;;;;;;;12.45;100.00;100959.75;5025962;28;19937;-58
2023/08/31 07:13:31;;;;;;;;;;;;;;;12.47;100.00;100961.53;5021531;28;20140;-58
2023/08/31 07:15:56;;;;;;;;;;;;;;;12.53;100.00;100961.63;5022849;28;19912;-59
2023/08/31 07:18:21;;;;;;;;;;;;;;;12.64;100.00;100958.31;5025583;28;19913;-59
2023/08/31 07:20:46;;;;;;;;;;;;;;;12.72;100.00;100961.97;5023450;28;20036;-59
2023/08/31 07:23:11;;;;;;;;;;;;;;;12.80;100.00;100965.59;5024627;28;19916;-58
2023/08/31 07:25:37;;;;;;;;;;;;;;;12.88;100.00;100963.09;5020224;28;19909;-58
2023/08/31 07:28:02;;;;;;;;;;;;;;;12.97;100.00;100965.84;5023489;28;19905;-59
2023/08/31 07:30:29;;;;;;;;;;;;;;;13.10;100.00;100963.44;5034426;28;19932;-59
2023/08/31 07:32:55;;;;;;;;;;;;;;;13.26;100.00;100970.63;5026301;28;19968;-59
2023/08/31 07:35:20;;;;;;;;;;;;;;;13.45;100.00;100965.69;5020573;28;19913;-59
2023/08/31 07:37:45;;;;;;;;;;;;;;;13.43;100.00;100962.19;5021369;28;20194;-59
2023/08/31 07:40:10;;;;;;;;;;;;;;;13.51;100.00;100963.16;5027484;28;19901;-59
2023/08/31 07:42:36;;;;;;;;;;;;;;;13.56;100.00;100961.50;5025143;28;20057;-59
2023/08/31 07:45:01;;;;;;;;;;;;;;;13.65;100.00;100969.44;5023716;28;19933;-58
2023/08/31 07:47:26;;;;;;;;;;;;;;;13.74;100.00;100966.97;5027299;28;19912;-59
2023/08/31 07:49:51;;;;;;;;;;;;;;;13.96;100.00;100974.19;5024167;28;19906;-59
2023/08/31 07:52:16;;;;;;;;;;;;;;;14.02;100.00;100967.28;5024861;28;20071;-59
2023/08/31 07:54:42;;;;;;;;;;;;;;;14.23;100.00;100978.88;5024424;28;19901;-59
2023/08/31 07:57:07;;;;;;;;;;;;;;;14.32;100.00;100970.22;5024158;28;19920;-59
2023/08/31 07:59:32;;;;;;;;;;;;;;;14.35;100.00;100965.91;5033188;28;20058;-59
2023/08/31 08:01:58;;;;;;;;;;;;;;;14.53;100.00;100977.44;5020682;28;19905;-59
2023/08/31 08:04:24;;;;;;;;;;;;;;;14.60;100.00;100969.63;5021497;28;19913;-59
2023/08/31 08:06:50;;;;;;;;;;;;;;;14.72;100.00;100970.63;5021753;28;19913;-59
2023/08/31 08:09:17;;;;;;;;;;;;;;;14.95;100.00;100976.06;5021196;28;19906;-59
2023/08/31 08:11:42;;;;;;;;;;;;;;;15.05;100.00;100984.91;5020692;28;19980;-59
2023/08/31 08:14:07;;;;;;;;;;;;;;;15.21;100.00;100978.00;5020682;28;19905;-59
2023/08/31 08:16:35;;;;;;;;;;;;;;;15.19;100.00;100988.47;5020872;28;19977;-59
2023/08/31 08:19:00;;;;;;;;;;;;;;;15.32;100.00;100981.56;5023228;28;19913;-59
2023/08/31 08:21:25;;;;;;;;;;;;;;;15.45;100.00;100979.88;5017380;28;19924;-60
2023/08/31 08:23:52;;;;;;;;;;;;;;;15.58;100.00;100988.72;5011083;28;19925;-60
2023/08/31 08:26:17;;;;;;;;;;;;;;;15.78;100.00;100986.19;5025550;28;19941;-60
2023/08/31 08:28:42;;;;;;;;;;;;;;;15.88;100.00;100984.50;5028101;28;20087;-60
2023/08/31 08:31:07;;;;;;;;;;;;;;;15.97;100.00;100988.06;5027285;28;19910;-60
2023/08/31 08:33:32;;;;;;;;;;;;;;;16.09;100.00;100987.22;5017468;28;20016;-60
2023/08/31 08:35:58;;;;;;;;;;;;;;;16.21;100.00;100993.41;5021852;28;19906;-60
2023/08/31 08:38:23;;;;;;;;;;;;;;;16.35;99.80;100994.28;5032664;28;19913;-60
2023/08/31 08:40:48;;;;;;;;;;;;;;;16.44;98.03;100994.31;5032630;28;19912;-60
2023/08/31 08:43:13;;;;;;;;;;;;;;;16.52;98.77;100999.56;5026732;28;19926;-60
2023/08/31 08:45:41;;;;;;;;;;;;;;;16.66;98.67;100999.59;5024049;28;19917;-61
2023/08/31 08:48:07;;;;;;;;;;;;;;;16.89;96.64;101004.00;5020283;28;19905;-60
2023/08/31 08:50:33;;;;;;;;;;;;;;;16.92;97.96;100998.78;5023518;28;19973;-60
2023/08/31 08:52:59;;;;;;;;;;;;;;;17.08;96.20;101005.78;5023331;28;20063;-60
2023/08/31 08:55:24;;;;;;;;;;;;;;;17.36;90.52;101000.47;5016386;28;19929;-61
2023/08/31 08:57:49;;;;;;;;;;;;;;;17.28;92.90;101007.50;5020026;28;19943;-61
2023/08/31 09:00:15;;;;;;;;;;;;;;;17.38;92.86;101004.00;5026874;28;19905;-60
2023/08/31 09:02:41;;;;;;;;;;;;;;;17.48;92.88;101012.72;5026559;28;20318;-61
2023/08/31 09:05:06;;;;;;;;;;;;;;;17.55;93.66;101003.94;5027756;28;19901;-61
2023/08/31 09:07:35;;;;;;;;;;;;;;;17.72;93.28;101004.75;5024861;28;19913;-61
2023/08/31 09:10:00;;;;;;;;;;;;;;;17.86;93.61;101014.41;5025543;28;19917;-61
2023/08/31 09:12:25;;;;;;;;;;;;;;;18.01;91.83;101008.22;5026976;28;19913;-61
2023/08/31 09:15:01;;;;;;;;;;;;;;;18.06;92.39;101003.75;5026718;28;20135;-61
2023/08/31 09:17:26;;;;;;;;;;;;;;;18.17;88.87;101015.16;5018740;28;20050;-61
2023/08/31 09:20:03;;;;;;;;;;;;;;;18.24;90.34;101002.81;5023946;28;19921;-61
2023/08/31 09:22:29;;;;;;;;;;;;;;;18.41;87.63;101013.28;5027271;28;19909;-61
2023/08/31 09:24:54;;;;;;;;;;;;;;;18.52;84.24;101014.06;5033936;28;19964;-61
2023/08/31 09:27:19;;;;;;;;;;;;;;;18.49;84.21;101022.00;5027329;28;20096;-62
2023/08/31 09:29:45;;;;;;;;;;;;;;;18.42;86.63;101013.25;5025021;28;19917;-62
2023/08/31 09:32:15;;;;;;;;;;;;;;;18.42;88.24;101012.38;5026265;28;20151;-62
2023/08/31 09:34:40;;;;;;;;;;;;;;;18.56;85.94;101015.78;5014874;28;19905;-62
2023/08/31 09:37:08;;;;;;;;;;;;;;;18.74;86.24;101024.47;5014205;28;19917;-62
2023/08/31 09:39:35;;;;;;;;;;;;;;;18.84;83.13;101026.19;5018329;28;20252;-62
2023/08/31 09:42:03;;;;;;;;;;;;;;;18.87;83.13;101020.91;5016040;28;20008;-61
2023/08/31 09:44:28;;;;;;;;;;;;;;;18.94;83.97;101016.44;5016381;28;19917;-61
2023/08/31 09:46:53;;;;;;;;;;;;;;;19.08;83.56;101017.19;5015999;28;19906;-62
2023/08/31 09:49:20;;;;;;;;;;;;;;;19.22;79.63;101014.44;5017769;28;19936;-61
2023/08/31 09:51:46;;;;;;;;;;;;;;;19.15;82.42;101017.13;5016125;28;19921;-62
2023/08/31 09:54:22;;;;;;;;;;;;;;;19.14;81.37;101018.91;5020179;28;19921;-62
2023/08/31 09:56:48;;;;;;;;;;;;;;;19.24;82.57;101017.91;5022581;28;19905;-62
2023/08/31 09:59:14;;;;;;;;;;;;;;;19.39;79.06;101029.22;5020646;28;21123;-62
2023/08/31 10:01:40;;;;;;;;;;;;;;;19.38;78.02;101024.81;5018678;28;19933;-62
2023/08/31 10:04:08;;;;;;;;;;;;;;;19.32;77.28;101032.81;5026826;28;20052;-62
2023/08/31 10:06:33;;;;;;;;;;;;;;;19.26;76.39;101026.72;5015418;28;19906;-62
2023/08/31 10:08:59;;;;;;;;;;;;;;;19.05;76.59;101019.00;5017204;28;20048;-62
2023/08/31 10:11:25;;;;;;;;;;;;;;;19.17;77.07;101026.78;5017988;28;19921;-62
2023/08/31 10:13:51;;;;;;;;;;;;;;;19.15;76.52;101023.31;5015855;28;20060;-62
2023/08/31 10:16:18;;;;;;;;;;;;;;;19.06;76.91;101026.00;5016880;28;20023;-62
2023/08/31 10:18:44;;;;;;;;;;;;;;;19.06;77.77;101028.66;5017149;28;19980;-62
2023/08/31 10:21:09;;;;;;;;;;;;;;;19.05;77.35;101026.91;5017659;28;19925;-62
2023/08/31 10:23:35;;;;;;;;;;;;;;;18.95;75.39;101023.47;5016998;28;19991;-62
2023/08/31 10:26:01;;;;;;;;;;;;;;;18.71;77.30;101029.78;5013031;28;20075;-62
2023/08/31 10:28:30;;;;;;;;;;;;;;;18.66;75.58;101021.03;5020020;28;20155;-62
2023/08/31 10:31:15;;;;;;;;;;;;;;;18.56;75.08;101023.72;5014771;28;19913;-62
2023/08/31 10:33:42;;;;;;;;;;;;;;;18.27;77.40;101020.41;5016369;28;19909;-62
2023/08/31 10:36:17;;;;;;;;;;;;;;;18.38;75.27;101022.06;5017021;28;19977;-62
2023/08/31 10:38:47;;;;;;;;;;;;;;;18.38;76.45;101010.66;5019076;28;19906;-62
2023/08/31 10:41:13;;;;;;;;;;;;;;;18.40;77.35;101016.78;5024203;28;19902;-62
2023/08/31 10:43:51;;;;;;;;;;;;;;;18.69;78.74;101003.38;5020121;28;19955;-62
2023/08/31 10:46:28;;;;;;;;;;;;;;;19.11;75.45;101006.59;5022934;28;19972;-62
2023/08/31 10:48:55;;;;;;;;;;;;;;;19.48;73.98;100988.63;5023445;28;20136;-64
2023/08/31 10:51:26;;;;;;;;;;;;;;;19.56;74.18;100995.56;5028850;28;19913;-63
2023/08/31 10:53:51;;;;;;;;;;;;;;;19.81;71.25;100992.66;5020093;28;20154;-63
2023/08/31 10:56:17;;;;;;;;;;;;;;;19.85;69.96;100988.22;5019369;28;19905;-63
2023/08/31 10:58:44;;;;;;;;;;;;;;;19.96;70.40;100992.47;5023308;28;20091;-63
2023/08/31 11:01:09;;;;;;;;;;;;;;;20.11;72.33;100987.88;5023743;28;19947;-62
2023/08/31 11:03:54;;;;;;;;;;;;;;;20.28;72.12;100985.88;5016921;28;19909;-65
2023/08/31 11:06:21;;;;;;;;;;;;;;;20.54;69.91;100989.91;5016262;28;19979;-66
2023/08/31 11:08:46;;;;;;;;;;;;;;;20.79;68.14;100987.75;5015828;28;19912;-63
2023/08/31 11:11:12;;;;;;;;;;;;;;;20.96;66.79;100987.50;5016776;28;20043;-63
2023/08/31 11:13:38;;;;;;;;;;;;;;;20.94;64.76;100993.72;5017537;28;19909;-63
2023/08/31 11:16:03;;;;;;;;;;;;;;;20.77;61.09;100996.63;5021540;28;19913;-63
2023/08/31 11:18:28;;;;;;;;;;;;;;;20.14;65.05;101001.06;5025307;28;19980;-63
2023/08/31 11:20:55;;;;;;;;;;;;;;;19.92;62.96;100997.84;5017120;28;19909;-63
2023/08/31 11:23:20;;;;;;;;;;;;;;;19.66;65.44;100999.00;5016624;28;19921;-63
2023/08/31 11:25:47;;;;;;;;;;;;;;;19.69;67.64;101003.38;5016325;28;20193;-63
2023/08/31 11:28:12;;;;;;;;;;;;;;;19.84;68.55;100997.06;5024357;28;19972;-64
2023/08/31 11:30:37;;;;;;;;;;;;;;;20.04;69.35;100995.03;5019605;28;19936;-62
2023/08/31 11:33:03;;;;;;;;;;;;;;;20.02;68.64;100996.81;5023790;28;19901;-63
2023/08/31 11:35:32;;;;;;;;;;;;;;;20.10;67.73;100994.06;5024953;28;20000;-63
2023/08/31 11:37:57;;;;;;;;;;;;;;;20.24;68.20;100989.47;5020333;28;20139;-63
2023/08/31 11:40:22;;;;;;;;;;;;;;;20.32;68.14;100984.94;5032362;28;19905;-64
2023/08/31 11:42:49;;;;;;;;;;;;;;;20.54;64.74;100984.63;5012752;28;19913;-64
2023/08/31 11:45:15;;;;;;;;;;;;;;;20.56;63.92;100990.75;5011749;28;20254;-64
2023/08/31 11:47:40;;;;;;;;;;;;;;;20.50;62.28;100985.56;5019593;28;19914;-64
2023/08/31 11:50:06;;;;;;;;;;;;;;;20.05;66.05;100980.91;5014659;28;19924;-64
2023/08/31 11:52:32;;;;;;;;;;;;;;;20.00;67.17;100985.38;5018957;28;19978;-64
2023/08/31 11:54:57;;;;;;;;;;;;;;;20.01;67.67;100987.13;5012938;28;19909;-64
2023/08/31 11:57:26;;;;;;;;;;;;;;;19.97;69.31;100983.66;5018577;28;19980;-64
2023/08/31 11:59:52;;;;;;;;;;;;;;;19.96;69.13;100975.75;5018177;28;19905;-64
2023/08/31 12:02:18;;;;;;;;;;;;;;;19.85;68.85;100978.53;5024554;28;19901;-64
2023/08/31 12:04:44;;;;;;;;;;;;;;;19.77;68.76;100977.72;5012440;28;19925;-64
2023/08/31 12:07:09;;;;;;;;;;;;;;;19.63;66.84;100984.03;5014866;28;19929;-64
2023/08/31 12:09:35;;;;;;;;;;;;;;;19.48;66.95;100999.19;5012809;28;19937;-63
2023/08/31 12:12:00;;;;;;;;;;;;;;;19.33;67.97;101032.81;5018796;28;19921;-62
2023/08/31 12:14:26;;;;;;;;;;;;;;;19.26;74.89;101037.28;5014084;28;19897;-60
2023/08/31 12:16:52;;;;;;;;;;;;;;;18.15;78.57;101029.25;5019364;28;19921;-61
2023/08/31 12:19:18;;;;;;;;;;;;;;;17.47;81.11;101027.66;5019698;28;19973;-61
2023/08/31 12:21:46;;;;;;;;;;;;;;;17.12;82.17;101028.59;5012853;28;19917;-61
2023/08/31 12:24:12;;;;;;;;;;;;;;;16.96;82.70;101040.88;5018135;28;19983;-61